Time;durP1;ratioP1;P1;durP2;ratioP2;P2;SDS_P1;SDS_P2;PMS_P1;PMS_P2;Temp;Humidity;BMP_temperature;BMP_pressure;BME280_temperature;BME280_humidity;BME280_pressure;Samples;Min_cycle;Max_cycle;Signal;HPM_P1;HPM_P2
2023/02/02 00:01:46;;;;;;;9.25;3.40;;;;;;;17.30;50.42;102172.94;4843890;29;20053;-86
2023/02/02 00:04:21;;;;;;;7.72;3.40;;;;;;;17.28;50.51;102176.38;4858321;29;20067;-83
2023/02/02 00:06:48;;;;;;;8.30;3.28;;;;;;;17.28;50.46;102184.19;4858027;29;20484;-83
2023/02/02 00:09:15;;;;;;;8.63;3.75;;;;;;;17.25;50.69;102178.97;4859514;29;20534;-84
2023/02/02 00:11:42;;;;;;;7.55;3.20;;;;;;;17.27;50.57;102173.78;4855295;29;20041;-83
2023/02/02 00:14:08;;;;;;;9.27;3.63;;;;;;;17.26;50.76;102182.44;4853927;29;20078;-82
2023/02/02 00:16:51;;;;;;;8.30;3.33;;;;;;;17.23;50.55;102188.47;4842238;29;20037;-83
2023/02/02 00:19:19;;;;;;;6.22;3.08;;;;;;;17.26;50.44;102191.09;4853643;29;20041;-80
2023/02/02 00:21:44;;;;;;;6.38;3.00;;;;;;;17.26;50.46;102187.63;4830928;29;20033;-81
2023/02/02 00:24:12;;;;;;;7.80;3.53;;;;;;;17.25;50.62;102185.91;4821992;29;20053;-82
2023/02/02 00:26:39;;;;;;;7.15;3.00;;;;;;;17.23;50.49;102187.59;4871895;29;20045;-82
2023/02/02 00:29:06;;;;;;;7.07;3.08;;;;;;;17.24;50.31;102184.13;4857078;29;20393;-83
2023/02/02 00:31:32;;;;;;;5.95;2.80;;;;;;;17.24;50.48;102186.75;4858513;29;20441;-84
2023/02/02 00:33:58;;;;;;;7.78;3.20;;;;;;;17.22;50.53;102178.94;4858851;29;20481;-83
2023/02/02 00:36:24;;;;;;;7.68;3.28;;;;;;;17.21;50.43;102179.78;4843312;29;20485;-84
2023/02/02 00:38:50;;;;;;;10.10;2.80;;;;;;;17.22;50.48;102178.03;4843410;29;20052;-83
2023/02/02 00:41:16;;;;;;;8.20;3.00;;;;;;;17.20;50.31;102178.03;4843790;29;20076;-84
2023/02/02 00:43:42;;;;;;;7.20;2.90;;;;;;;17.21;50.27;102182.38;4858613;29;20127;-83
2023/02/02 00:46:16;;;;;;;7.63;2.88;;;;;;;17.20;50.73;102187.56;4876083;29;20131;-84
2023/02/02 00:48:42;;;;;;;7.88;3.20;;;;;;;17.20;50.33;102183.25;4856412;29;20047;-83
2023/02/02 00:51:07;;;;;;;4.85;2.45;;;;;;;17.19;50.78;102178.88;4841370;29;20453;-85
2023/02/02 00:53:33;;;;;;;7.72;2.55;;;;;;;17.19;50.57;102183.22;4857638;29;20450;-82
2023/02/02 00:55:58;;;;;;;6.97;2.90;;;;;;;17.19;50.78;102180.63;4872435;29;20037;-82
2023/02/02 00:58:23;;;;;;;7.18;2.55;;;;;;;17.19;50.57;102186.69;4826078;29;20087;-82
2023/02/02 01:00:49;;;;;;;6.28;2.72;;;;;;;17.18;50.56;102171.03;4873328;29;20469;-83
2023/02/02 01:03:15;;;;;;;6.53;2.80;;;;;;;17.17;50.40;102170.19;4844376;29;20140;-84
2023/02/02 01:05:40;;;;;;;5.22;2.63;;;;;;;17.17;50.52;102177.13;4833559;29;20072;-80
2023/02/02 01:08:06;;;;;;;7.78;2.95;;;;;;;17.16;50.47;102181.44;4830381;29;20049;-80
2023/02/02 01:10:32;;;;;;;6.53;2.75;;;;;;;17.16;50.54;102172.75;4830082;29;20508;-81
2023/02/02 01:12:58;;;;;;;6.40;2.88;;;;;;;17.15;50.48;102171.00;4861761;29;20512;-81
2023/02/02 01:15:23;;;;;;;6.32;2.70;;;;;;;17.15;50.46;102165.81;4845259;29;20042;-81
2023/02/02 01:17:49;;;;;;;7.28;2.70;;;;;;;17.15;50.61;102166.69;4845029;29;20061;-82
2023/02/02 01:20:18;;;;;;;6.47;2.63;;;;;;;17.14;50.57;102172.75;4830406;29;20048;-81
2023/02/02 01:22:43;;;;;;;5.55;2.40;;;;;;;17.16;50.62;102167.53;4845387;29;20063;-80
2023/02/02 01:25:08;;;;;;;4.25;2.00;;;;;;;17.15;50.54;102160.59;4829829;29;20046;-80
2023/02/02 01:27:34;;;;;;;4.85;2.40;;;;;;;17.15;50.43;102165.81;4829972;29;20041;-80
2023/02/02 01:29:59;;;;;;;5.03;2.53;;;;;;;17.15;50.43;102168.41;4830342;29;20049;-79
2023/02/02 01:32:25;;;;;;;5.90;2.30;;;;;;;17.15;50.43;102169.28;4845424;29;20136;-81
2023/02/02 01:34:50;;;;;;;6.70;2.72;;;;;;;17.16;50.57;102170.16;4857255;29;20037;-83
2023/02/02 01:37:15;;;;;;;6.28;2.40;;;;;;;17.14;50.43;102162.34;4863681;29;20503;-82
2023/02/02 01:39:41;;;;;;;5.50;2.17;;;;;;;17.13;50.24;102165.78;4836951;29;20046;-84
2023/02/02 01:42:21;;;;;;;6.25;2.20;;;;;;;17.15;50.62;102168.41;4854747;29;20058;-83
2023/02/02 01:45:07;;;;;;;5.32;2.45;;;;;;;17.12;50.44;102174.47;4882661;29;20046;-83
2023/02/02 01:47:40;;;;;;;5.75;2.60;;;;;;;17.14;50.74;102179.69;4855171;29;20038;-81
2023/02/02 01:50:08;;;;;;;5.65;2.20;;;;;;;17.13;50.59;102172.72;4865272;29;20088;-80
2023/02/02 01:52:36;;;;;;;6.38;2.53;;;;;;;17.12;50.72;102171.00;4855815;29;20098;-80
2023/02/02 01:55:07;;;;;;;5.72;2.33;;;;;;;17.12;50.72;102168.38;4855717;29;20041;-81
2023/02/02 01:57:51;;;;;;;6.07;2.60;;;;;;;17.12;50.71;102161.44;4848900;29;20037;-81
2023/02/02 02:00:23;;;;;;;5.35;2.60;;;;;;;17.11;50.51;102158.81;4865362;29;20033;-81
2023/02/02 02:02:50;;;;;;;4.97;2.13;;;;;;;17.12;50.72;102163.19;4854943;29;20582;-83
2023/02/02 02:05:22;;;;;;;5.95;2.25;;;;;;;17.10;50.68;102162.28;4848738;29;20060;-84
2023/02/02 02:07:50;;;;;;;5.20;1.98;;;;;;;17.10;50.44;102163.16;4865820;29;20048;-83
2023/02/02 02:10:17;;;;;;;4.22;1.98;;;;;;;17.11;50.71;102162.28;4881057;29;20049;-84
2023/02/02 02:12:43;;;;;;;5.32;2.38;;;;;;;17.10;50.63;102163.16;4881645;29;20050;-84
2023/02/02 02:18:38;;;;;;;4.13;2.10;;;;;;;17.10;50.73;102163.16;4882984;29;20070;-84
2023/02/02 02:27:39;;;;;;;5.50;2.08;;;;;;;17.06;50.58;102136.22;5012287;24;20095;-83
2023/02/02 02:30:31;;;;;;;6.40;2.30;;;;;;;17.06;50.62;102144.03;4857469;29;20045;-84
2023/02/02 02:33:22;;;;;;;4.78;2.00;;;;;;;17.09;50.51;102157.91;4880675;29;20037;-83
2023/02/02 02:36:17;;;;;;;6.30;2.05;;;;;;;17.08;50.74;102144.06;4863920;29;20054;-83
2023/02/02 02:39:13;;;;;;;4.78;2.13;;;;;;;17.05;50.58;102147.50;4844187;29;20128;-81
2023/02/02 02:41:45;;;;;;;4.93;2.40;;;;;;;17.06;50.60;102145.75;4845739;29;20042;-82
2023/02/02 02:44:15;;;;;;;6.20;2.10;;;;;;;17.05;50.65;102150.09;4847951;29;20124;-81
2023/02/02 02:46:41;;;;;;;5.90;2.00;;;;;;;17.04;50.47;102145.72;4848211;29;20132;-81
2023/02/02 02:49:09;;;;;;;5.55;2.22;;;;;;;17.06;50.50;102154.44;4832369;29;20091;-81
2023/02/02 02:51:42;;;;;;;5.60;2.20;;;;;;;17.05;50.57;102149.22;4832776;29;20044;-81
2023/02/02 02:54:08;;;;;;;5.20;2.17;;;;;;;17.05;50.85;102149.22;4847576;29;20069;-81
2023/02/02 02:56:43;;;;;;;4.25;1.98;;;;;;;17.05;50.53;102157.03;4847266;29;20461;-81
2023/02/02 02:59:33;;;;;;;5.70;2.40;;;;;;;17.05;50.70;102170.03;4847792;29;20037;-81
2023/02/02 03:02:37;;;;;;;5.22;2.25;;;;;;;17.04;50.65;102171.72;4847439;29;20054;-81
2023/02/02 03:05:33;;;;;;;5.00;2.20;;;;;;;17.04;50.49;102174.34;4847187;29;20037;-82
2023/02/02 03:07:58;;;;;;;3.78;1.95;;;;;;;17.04;50.42;102173.47;4848219;29;20045;-81
2023/02/02 03:10:28;;;;;;;5.68;2.20;;;;;;;17.02;50.55;102176.03;4847362;29;20048;-81
2023/02/02 03:12:54;;;;;;;5.75;2.20;;;;;;;17.03;50.77;102175.19;4847549;29;20128;-81
2023/02/02 03:15:19;;;;;;;5.20;1.90;;;;;;;17.03;50.57;102175.19;4847833;29;20041;-82
2023/02/02 03:17:46;;;;;;;4.70;2.03;;;;;;;17.04;50.62;102176.06;4847406;29;20041;-82
2023/02/02 03:20:12;;;;;;;6.15;2.05;;;;;;;17.03;50.60;102166.53;4832065;29;20140;-82
2023/02/02 03:22:38;;;;;;;5.50;2.33;;;;;;;17.04;50.47;102181.28;4847045;29;20485;-81
2023/02/02 03:25:04;;;;;;;5.70;2.10;;;;;;;17.03;50.54;102171.75;4842561;29;20045;-81
2023/02/02 03:27:29;;;;;;;5.43;2.13;;;;;;;17.02;50.59;102163.03;4813274;29;20191;-80
2023/02/02 03:29:55;;;;;;;5.07;2.10;;;;;;;17.03;50.47;102156.13;4813452;29;20133;-81
2023/02/02 03:32:20;;;;;;;4.57;2.10;;;;;;;17.02;50.61;102155.22;4813576;29;20045;-81
2023/02/02 03:34:46;;;;;;;5.68;2.33;;;;;;;17.00;50.74;102151.72;4812979;29;20041;-81
2023/02/02 03:37:11;;;;;;;5.57;2.30;;;;;;;17.01;50.33;102153.50;4828403;29;20049;-81
2023/02/02 03:39:36;;;;;;;5.57;2.28;;;;;;;17.03;50.55;102145.72;4828896;29;20038;-81
2023/02/02 03:42:02;;;;;;;5.00;2.03;;;;;;;17.01;50.46;102147.44;4813175;29;20041;-81
2023/02/02 03:44:27;;;;;;;4.35;1.95;;;;;;;17.02;50.56;102156.97;4813434;29;20454;-81
2023/02/02 03:46:53;;;;;;;6.90;2.47;;;;;;;17.01;50.75;102163.91;4828459;29;20064;-81
2023/02/02 03:49:18;;;;;;;4.38;2.03;;;;;;;17.01;50.39;102169.09;4813097;29;20052;-81
2023/02/02 03:51:44;;;;;;;5.55;1.92;;;;;;;17.00;50.77;102159.53;4812961;29;20408;-81
2023/02/02 03:54:09;;;;;;;4.57;2.00;;;;;;;16.99;50.53;102157.81;4830207;29;20553;-80
2023/02/02 03:56:35;;;;;;;4.93;2.10;;;;;;;16.99;50.68;102154.34;4828358;29;20151;-84
2023/02/02 03:59:00;;;;;;;6.47;2.42;;;;;;;16.99;50.60;102163.00;4848977;29;20127;-84
2023/02/02 04:01:27;;;;;;;3.75;1.58;;;;;;;17.00;50.59;102163.88;4835515;29;20075;-80
2023/02/02 04:03:54;;;;;;;6.95;2.40;;;;;;;16.99;50.52;102170.81;4835159;29;20122;-82
2023/02/02 04:06:20;;;;;;;5.65;1.98;;;;;;;16.99;50.38;102167.34;4834929;29;20113;-83
2023/02/02 04:08:45;;;;;;;4.85;1.90;;;;;;;16.99;50.58;102175.13;4833668;29;20034;-83
2023/02/02 04:11:11;;;;;;;5.03;1.98;;;;;;;16.99;50.55;102176.00;4849707;29;20059;-84
2023/02/02 04:13:38;;;;;;;5.28;2.10;;;;;;;16.98;50.61;102161.25;4864858;29;20045;-83
2023/02/02 04:16:04;;;;;;;5.75;2.20;;;;;;;16.98;50.53;102165.56;4866461;29;20055;-84
2023/02/02 04:18:30;;;;;;;4.38;2.05;;;;;;;16.97;50.29;102169.03;4834915;29;20065;-84
2023/02/02 04:20:59;;;;;;;5.03;1.90;;;;;;;16.94;50.72;102164.69;4848874;29;20040;-86
2023/02/02 04:23:26;;;;;;;5.57;2.10;;;;;;;16.97;50.40;102176.84;4848452;29;20040;-86
2023/02/02 04:25:51;;;;;;;4.45;2.03;;;;;;;16.97;50.85;102176.84;4847498;29;20046;-86
2023/02/02 04:28:17;;;;;;;3.80;1.88;;;;;;;16.98;50.69;102173.38;4833683;29;20137;-85
2023/02/02 04:30:42;;;;;;;4.53;1.77;;;;;;;16.97;50.71;102185.50;4864664;29;20061;-86
2023/02/02 04:33:08;;;;;;;5.05;1.85;;;;;;;16.97;50.68;102172.50;4818459;29;20038;-85
2023/02/02 04:35:33;;;;;;;4.47;1.70;;;;;;;16.98;50.86;102169.03;4832418;29;20042;-84
2023/02/02 04:37:58;;;;;;;3.53;1.83;;;;;;;16.98;50.83;102168.19;4832153;29;20050;-83
2023/02/02 04:40:24;;;;;;;4.07;2.03;;;;;;;16.98;51.02;102174.25;4833869;29;20042;-84
2023/02/02 04:42:50;;;;;;;3.55;1.73;;;;;;;16.98;50.47;102181.19;4848555;29;20442;-84
2023/02/02 04:45:15;;;;;;;3.85;1.77;;;;;;;16.99;50.62;102182.94;4833339;29;20413;-83
2023/02/02 04:47:41;;;;;;;4.13;1.80;;;;;;;16.98;50.72;102192.44;4847621;29;20030;-84
2023/02/02 04:50:07;;;;;;;4.07;1.63;;;;;;;16.99;50.67;102185.53;4817334;29;20083;-83
2023/02/02 04:52:34;;;;;;;4.78;1.85;;;;;;;16.99;50.71;102178.59;4848890;29;20038;-83
2023/02/02 04:54:59;;;;;;;4.00;1.70;;;;;;;17.00;50.71;102177.75;4814428;29;20052;-86
2023/02/02 04:57:25;;;;;;;3.67;1.45;;;;;;;17.00;50.60;102182.94;4828363;29;20038;-82
2023/02/02 04:59:50;;;;;;;4.50;1.60;;;;;;;16.99;50.76;102178.59;4817097;29;20075;-83
2023/02/02 05:02:16;;;;;;;4.20;1.80;;;;;;;16.98;50.71;102179.44;4827025;29;20038;-83
2023/02/02 05:04:41;;;;;;;5.63;1.95;;;;;;;17.00;50.66;102175.13;4832709;29;20022;-89
2023/02/02 05:07:06;;;;;;;3.67;1.40;;;;;;;16.99;50.85;102176.00;4833565;29;20042;-88
2023/02/02 05:09:32;;;;;;;4.18;1.88;;;;;;;16.99;50.70;102180.34;4847879;29;20102;-86
2023/02/02 05:11:57;;;;;;;3.42;1.50;;;;;;;17.00;50.89;102182.94;4848052;29;20105;-85
2023/02/02 05:14:23;;;;;;;3.33;1.65;;;;;;;17.00;50.70;102189.88;4863954;29;20034;-85
2023/02/02 05:16:48;;;;;;;3.28;1.58;;;;;;;17.01;50.91;102186.44;4832742;29;20042;-86
2023/02/02 05:19:15;;;;;;;5.47;1.55;;;;;;;17.00;50.54;102182.06;4833733;29;20044;-86
2023/02/02 05:21:43;;;;;;;2.15;1.20;;;;;;;17.01;50.74;102187.31;4868037;29;20048;-83
2023/02/02 05:24:09;;;;;;;4.60;1.80;;;;;;;16.99;50.79;102176.00;4848820;29;20057;-84
2023/02/02 05:26:34;;;;;;;3.53;1.63;;;;;;;17.01;50.76;102184.72;4819868;29;20054;-83
2023/02/02 05:29:00;;;;;;;3.90;1.70;;;;;;;17.00;50.91;102190.75;4864815;29;20038;-84
2023/02/02 05:31:25;;;;;;;4.15;1.63;;;;;;;17.00;50.78;102185.53;4833855;29;20041;-84
2023/02/02 05:33:51;;;;;;;4.10;1.55;;;;;;;17.00;51.09;102193.34;4833569;29;20046;-84
2023/02/02 05:36:17;;;;;;;3.45;1.48;;;;;;;17.02;50.76;102202.03;4864907;29;20042;-84
2023/02/02 05:38:42;;;;;;;2.72;1.30;;;;;;;17.02;50.75;102195.97;4864622;29;20049;-86
2023/02/02 05:41:08;;;;;;;3.60;1.50;;;;;;;17.01;50.80;102200.31;4866436;29;20046;-84
2023/02/02 05:43:33;;;;;;;2.70;1.55;;;;;;;17.00;50.84;102192.47;4847981;29;20073;-83
2023/02/02 05:45:59;;;;;;;3.33;1.35;;;;;;;17.01;50.83;102207.25;4848453;29;20493;-84
2023/02/02 05:48:26;;;;;;;2.83;1.42;;;;;;;17.01;51.00;102191.66;4848828;29;20045;-84
2023/02/02 05:51:03;;;;;;;4.53;1.63;;;;;;;17.00;50.82;102208.09;4848343;29;20029;-84
2023/02/02 05:53:30;;;;;;;3.47;1.65;;;;;;;17.01;50.82;102202.91;4848159;29;20041;-83
2023/02/02 05:55:55;;;;;;;2.65;1.38;;;;;;;17.01;50.98;102183.84;4847952;29;20045;-82
2023/02/02 05:58:21;;;;;;;3.08;1.40;;;;;;;17.01;51.04;102199.44;4848550;29;20485;-83
2023/02/02 06:00:46;;;;;;;2.83;1.35;;;;;;;17.02;51.18;102201.19;4845067;29;20038;-83
2023/02/02 06:03:12;;;;;;;3.55;1.42;;;;;;;17.00;51.08;102201.16;4816496;29;20049;-85
2023/02/02 06:05:38;;;;;;;3.70;1.40;;;;;;;17.01;50.77;102210.72;4846446;29;20041;-86
2023/02/02 06:08:03;;;;;;;4.25;1.60;;;;;;;17.03;51.04;102211.63;4844719;29;20038;-81
2023/02/02 06:10:30;;;;;;;3.35;1.40;;;;;;;17.03;50.82;102215.94;4814485;29;20136;-80
2023/02/02 06:12:56;;;;;;;3.38;1.45;;;;;;;17.02;50.82;102220.25;4816196;29;20061;-85
2023/02/02 06:15:21;;;;;;;3.50;1.55;;;;;;;17.03;50.99;102223.75;4821634;29;20397;-81
2023/02/02 06:17:47;;;;;;;3.13;1.30;;;;;;;17.03;51.03;102223.75;4829538;29;20049;-81
2023/02/02 06:20:12;;;;;;;2.97;1.42;;;;;;;17.03;51.12;102229.81;4829275;29;20061;-78
2023/02/02 06:22:37;;;;;;;10.65;2.80;;;;;;;17.05;51.04;102232.44;4815077;29;20042;-80
2023/02/02 06:25:04;;;;;;;6.10;2.47;;;;;;;17.04;51.25;102236.75;4848733;29;20148;-81
2023/02/02 06:27:30;;;;;;;8.93;3.08;;;;;;;17.04;51.18;102247.16;4851363;29;20053;-81
2023/02/02 06:29:56;;;;;;;7.18;2.70;;;;;;;17.05;51.25;102242.84;4843853;29;20050;-81
2023/02/02 06:32:21;;;;;;;6.50;2.88;;;;;;;17.05;51.38;102245.44;4807899;29;20199;-82
2023/02/02 06:34:46;;;;;;;7.45;2.85;;;;;;;17.05;51.49;102248.91;4838088;29;20358;-81
2023/02/02 06:37:12;;;;;;;5.72;2.60;;;;;;;17.05;51.33;102245.44;4819092;29;20080;-80
2023/02/02 06:39:37;;;;;;;8.35;2.65;;;;;;;17.05;51.69;102230.72;4831651;29;20026;-83
2023/02/02 06:42:03;;;;;;;9.00;2.58;;;;;;;17.06;51.53;102247.19;4847815;29;20067;-80
2023/02/02 06:44:28;;;;;;;8.43;2.30;;;;;;;17.06;51.11;102244.59;4849573;29;20110;-82
2023/02/02 06:46:54;;;;;;;7.05;2.75;;;;;;;17.06;51.55;102239.38;4817116;29;20045;-83
2023/02/02 06:49:19;;;;;;;8.68;2.70;;;;;;;17.05;51.56;102242.84;4814800;29;20069;-80
2023/02/02 06:51:47;;;;;;;9.60;2.00;;;;;;;17.05;51.67;102240.25;4830684;29;20060;-80
2023/02/02 06:54:12;;;;;;;6.60;2.10;;;;;;;17.06;51.40;102245.44;4831640;29;20512;-81
2023/02/02 06:56:38;;;;;;;5.22;2.30;;;;;;;17.07;51.75;102246.31;4800003;29;20129;-80
2023/02/02 06:59:03;;;;;;;5.20;2.20;;;;;;;17.06;51.69;102244.59;4830102;29;20046;-78
2023/02/02 07:01:28;;;;;;;7.15;3.00;;;;;;;17.07;51.72;102248.91;4798780;29;20041;-80
2023/02/02 07:03:54;;;;;;;11.32;2.47;;;;;;;17.06;51.75;102253.25;4828339;29;20042;-81
2023/02/02 07:06:22;;;;;;;7.18;2.92;;;;;;;17.07;51.76;102256.72;4798712;29;20050;-80
2023/02/02 07:08:49;;;;;;;5.45;2.53;;;;;;;17.09;51.96;102264.56;4845618;29;20504;-80
2023/02/02 07:11:15;;;;;;;7.53;2.67;;;;;;;17.10;51.96;102275.00;4814378;29;20073;-79
2023/02/02 07:13:40;;;;;;;7.53;2.80;;;;;;;17.18;51.98;102276.00;4832470;29;20052;-79
2023/02/02 07:16:08;;;;;;;12.07;3.38;;;;;;;17.21;51.80;102285.56;4814303;29;20042;-79
2023/02/02 07:18:35;;;;;;;11.27;3.03;;;;;;;17.19;51.67;102289.88;4817684;29;20371;-80
2023/02/02 07:21:01;;;;;;;12.23;3.22;;;;;;;17.16;52.19;102288.09;4830172;29;20065;-78
2023/02/02 07:23:28;;;;;;;7.90;3.10;;;;;;;17.15;51.87;102288.06;4815322;29;20065;-78
2023/02/02 07:26:07;;;;;;;9.02;3.28;;;;;;;17.12;52.14;102293.25;4829760;29;20517;-78
2023/02/02 07:28:33;;;;;;;10.18;3.50;;;;;;;17.10;51.76;102300.13;4828147;29;20149;-79
2023/02/02 07:30:59;;;;;;;11.50;3.25;;;;;;;17.09;51.54;102293.16;4844293;29;20073;-78
2023/02/02 07:33:24;;;;;;;10.50;3.50;;;;;;;17.08;51.58;102307.91;4812830;29;20375;-79
2023/02/02 07:35:50;;;;;;;9.73;3.47;;;;;;;17.17;51.32;102307.19;4812403;29;20044;-80
2023/02/02 07:38:16;;;;;;;9.98;3.10;;;;;;;17.24;50.93;102309.88;4812453;29;20451;-79
2023/02/02 07:40:42;;;;;;;11.55;3.30;;;;;;;17.30;50.57;102311.72;4812507;29;20038;-79
2023/02/02 07:43:08;;;;;;;10.10;3.08;;;;;;;17.33;50.92;102310.88;4827605;29;20512;-79
2023/02/02 07:45:34;;;;;;;8.73;3.10;;;;;;;17.34;50.86;102321.31;4812871;29;20038;-79
2023/02/02 07:48:01;;;;;;;8.93;3.30;;;;;;;17.35;51.12;102312.66;4827784;29;20042;-79
2023/02/02 07:50:28;;;;;;;8.98;2.92;;;;;;;17.37;51.11;102318.75;4848337;29;20048;-79
2023/02/02 07:52:54;;;;;;;7.55;2.63;;;;;;;17.38;50.93;102317.06;4815046;29;20049;-79
2023/02/02 07:55:20;;;;;;;9.93;3.03;;;;;;;17.40;50.75;102320.56;4845766;29;20046;-79
2023/02/02 07:57:45;;;;;;;9.43;2.92;;;;;;;17.40;50.86;102321.41;4844299;29;20188;-79
2023/02/02 08:00:11;;;;;;;10.40;3.03;;;;;;;17.42;51.07;102322.31;4827711;29;20038;-79
2023/02/02 08:02:37;;;;;;;6.60;2.47;;;;;;;17.42;51.06;102319.72;4827412;29;20042;-78
2023/02/02 08:05:02;;;;;;;6.75;2.47;;;;;;;17.43;50.72;102313.63;4827516;29;20041;-77
2023/02/02 08:07:31;;;;;;;4.93;2.40;;;;;;;17.42;50.95;102317.13;4827501;29;20046;-79
2023/02/02 08:09:56;;;;;;;7.00;2.65;;;;;;;17.43;50.86;102316.25;4798164;29;20094;-80
2023/02/02 08:12:22;;;;;;;6.60;2.40;;;;;;;17.44;50.80;102327.53;4812882;29;20046;-80
2023/02/02 08:14:47;;;;;;;6.18;2.45;;;;;;;17.45;50.98;102318.88;4827442;29;20081;-79
2023/02/02 08:17:13;;;;;;;6.60;2.58;;;;;;;17.46;50.80;102328.41;4812394;29;20129;-79
2023/02/02 08:19:38;;;;;;;7.78;2.53;;;;;;;17.46;50.62;102334.53;4827480;29;20092;-80
2023/02/02 08:22:04;;;;;;;7.95;2.47;;;;;;;17.48;50.82;102324.13;4796536;29;20133;-80
2023/02/02 08:24:29;;;;;;;5.40;2.60;;;;;;;17.48;51.00;102330.22;4843129;29;20087;-80
2023/02/02 08:26:54;;;;;;;6.65;2.45;;;;;;;17.50;50.81;102330.22;4796439;29;20513;-79
2023/02/02 08:29:20;;;;;;;4.80;2.28;;;;;;;17.52;50.92;102325.03;4811725;29;20461;-80
2023/02/02 08:31:45;;;;;;;6.25;2.10;;;;;;;17.52;50.68;102338.94;4827067;29;20094;-80
2023/02/02 08:34:12;;;;;;;6.93;2.33;;;;;;;17.53;50.83;102340.69;4826662;29;20046;-80
2023/02/02 08:36:38;;;;;;;6.20;2.58;;;;;;;17.56;50.68;102342.47;4827044;29;20034;-80
2023/02/02 08:39:10;;;;;;;5.22;2.10;;;;;;;17.56;50.53;102339.84;4826793;29;20038;-79
2023/02/02 08:41:37;;;;;;;6.38;2.22;;;;;;;17.57;50.80;102352.00;4826583;29;20038;-79
2023/02/02 08:44:07;;;;;;;6.10;2.42;;;;;;;17.57;50.61;102352.91;4827133;29;20533;-80
2023/02/02 08:46:33;;;;;;;4.75;1.92;;;;;;;17.57;50.54;102350.31;4826740;29;20038;-80
2023/02/02 08:48:58;;;;;;;5.43;1.90;;;;;;;17.58;50.62;102357.25;4811309;29;20531;-80
2023/02/02 08:51:23;;;;;;;4.88;1.95;;;;;;;17.57;50.46;102357.22;4812797;29;20079;-79
2023/02/02 08:53:49;;;;;;;4.75;2.17;;;;;;;17.59;50.32;102360.72;4814675;29;20494;-80
2023/02/02 08:56:20;;;;;;;5.13;2.22;;;;;;;17.59;50.52;102356.38;4815106;29;20050;-79
2023/02/02 08:58:50;;;;;;;3.20;1.90;;;;;;;17.58;50.60;102351.16;4829852;29;20105;-80
2023/02/02 09:01:19;;;;;;;4.70;1.70;;;;;;;17.61;50.49;102365.09;4830287;29;20049;-80
2023/02/02 09:03:45;;;;;;;4.30;1.90;;;;;;;17.61;50.45;102352.06;4846618;29;20040;-80
2023/02/02 09:06:13;;;;;;;4.28;1.80;;;;;;;17.62;50.51;102358.19;4846414;29;20049;-79
2023/02/02 09:08:38;;;;;;;4.35;1.77;;;;;;;17.62;50.45;102366.00;4846784;29;20038;-80
2023/02/02 09:11:08;;;;;;;4.05;1.90;;;;;;;17.61;50.38;102369.44;4830177;29;20140;-80
2023/02/02 09:13:35;;;;;;;3.65;1.88;;;;;;;17.61;50.51;102375.50;4830189;29;20041;-79
2023/02/02 09:16:02;;;;;;;3.58;1.80;;;;;;;17.62;50.35;102382.47;4834101;29;20474;-79
2023/02/02 09:18:28;;;;;;;5.25;2.08;;;;;;;17.63;50.31;102376.41;4820416;29;20102;-80
2023/02/02 09:20:53;;;;;;;4.10;1.65;;;;;;;17.63;50.29;102383.34;4829722;29;20045;-80
2023/02/02 09:23:19;;;;;;;4.07;1.65;;;;;;;17.65;50.23;102384.25;4814560;29;20049;-79
2023/02/02 09:25:45;;;;;;;4.43;1.70;;;;;;;17.65;50.25;102382.50;4829549;29;20046;-79
2023/02/02 09:28:10;;;;;;;4.60;1.90;;;;;;;17.66;50.58;102383.41;4814756;29;20046;-79
2023/02/02 09:30:36;;;;;;;4.25;1.50;;;;;;;17.67;50.44;102382.53;4800064;29;20049;-79
2023/02/02 09:33:01;;;;;;;4.10;1.60;;;;;;;17.67;50.29;102380.81;4833464;29;20509;-79
2023/02/02 09:35:26;;;;;;;4.63;1.60;;;;;;;17.68;50.36;102379.06;4836068;29;20038;-79
2023/02/02 09:37:52;;;;;;;4.82;1.80;;;;;;;17.68;50.22;102374.75;4834182;29;20070;-80
2023/02/02 09:40:19;;;;;;;3.63;1.58;;;;;;;17.70;50.28;102374.75;4814887;29;20159;-79
2023/02/02 09:43:23;;;;;;;3.50;1.65;;;;;;;17.72;50.26;102372.19;4843455;29;20046;-79
2023/02/02 09:46:16;;;;;;;3.78;1.70;;;;;;;17.72;50.30;102383.47;4856547;29;20545;-79
2023/02/02 09:49:08;;;;;;;4.38;1.60;;;;;;;17.75;50.32;102395.69;4838796;29;20030;-87
2023/02/02 09:51:42;;;;;;;3.20;1.50;;;;;;;17.74;50.44;102392.19;4831568;29;20848;-85
2023/02/02 09:54:14;;;;;;;3.85;1.80;;;;;;;17.74;50.17;102392.19;4831761;29;20038;-84
2023/02/02 09:56:42;;;;;;;4.65;1.50;;;;;;;17.75;50.13;102395.69;4829877;29;20053;-86
2023/02/02 09:59:18;;;;;;;3.80;1.58;;;;;;;17.73;50.13;102398.25;4830191;29;20050;-87
2023/02/02 10:01:46;;;;;;;3.72;1.60;;;;;;;17.73;50.26;102395.66;4833594;29;20109;-87
2023/02/02 10:04:35;;;;;;;2.88;1.45;;;;;;;17.74;50.19;102407.81;4822762;29;20041;-87
2023/02/02 10:07:18;;;;;;;3.42;1.52;;;;;;;17.74;50.18;102418.22;4807709;29;20126;-85
2023/02/02 10:10:01;;;;;;;3.47;1.80;;;;;;;17.75;50.45;102406.97;4853015;29;20038;-85
2023/02/02 10:12:39;;;;;;;2.90;1.37;;;;;;;17.77;50.08;102418.28;4849565;29;20050;-85
2023/02/02 10:15:16;;;;;;;3.45;1.42;;;;;;;17.77;49.99;102420.88;4847533;29;20042;-86
2023/02/02 10:17:49;;;;;;;3.58;1.58;;;;;;;17.78;50.00;102419.16;4829904;29;20473;-84
2023/02/02 10:20:30;;;;;;;4.07;1.52;;;;;;;17.78;49.98;102419.16;4829525;29;20038;-85
2023/02/02 10:23:05;;;;;;;4.82;1.60;;;;;;;17.80;50.03;102425.25;4846032;29;20037;-86
2023/02/02 10:25:34;;;;;;;3.15;1.65;;;;;;;17.80;50.22;102431.34;4829537;29;20497;-86
2023/02/02 10:28:23;;;;;;;3.08;1.63;;;;;;;17.81;50.17;102432.19;4829578;29;20129;-85
2023/02/02 10:30:58;;;;;;;2.95;1.35;;;;;;;17.82;50.06;102429.66;4829534;29;20045;-86
2023/02/02 10:33:49;;;;;;;3.90;1.70;;;;;;;17.83;50.18;102428.81;4831672;29;20041;-86
2023/02/02 10:36:30;;;;;;;3.25;1.40;;;;;;;17.85;49.94;102431.44;4832624;29;20098;-86
2023/02/02 10:39:20;;;;;;;4.28;1.75;;;;;;;17.86;50.01;102423.66;4849426;29;20041;-86
2023/02/02 10:42:04;;;;;;;3.30;1.58;;;;;;;17.91;49.73;102425.44;4831953;29;20038;-85
2023/02/02 10:44:42;;;;;;;4.47;1.60;;;;;;;17.91;49.83;102422.84;4831345;29;20382;-86
2023/02/02 10:47:15;;;;;;;2.67;1.30;;;;;;;17.90;49.99;102429.78;4832219;29;20037;-86
2023/02/02 10:49:40;;;;;;;2.40;0.98;;;;;;;17.89;49.80;102434.09;4846291;29;20042;-87
2023/02/02 10:52:09;;;;;;;3.78;1.55;;;;;;;17.89;49.81;102438.44;4829317;29;20191;-86
2023/02/02 10:55:00;;;;;;;4.45;1.50;;;;;;;17.91;49.73;102426.31;4829262;29;20402;-86
2023/02/02 10:58:04;;;;;;;2.95;1.30;;;;;;;17.93;49.98;102428.94;4829131;29;20060;-85
2023/02/02 11:00:39;;;;;;;2.35;1.02;;;;;;;17.92;50.04;102427.19;4828406;29;20497;-85
2023/02/02 11:03:07;;;;;;;3.88;1.40;;;;;;;17.92;49.73;102445.41;4845110;29;20045;-86
2023/02/02 11:08:26;;;;;;;2.83;1.30;;;;;;;17.89;49.79;102441.91;4831329;29;20053;-85
2023/02/02 11:10:54;;;;;;;3.13;1.55;;;;;;;17.88;49.98;102436.69;4828455;29;20042;-85
2023/02/02 11:13:40;;;;;;;2.72;1.27;;;;;;;17.90;49.94;102435.00;4845179;29;20084;-86
2023/02/02 11:16:14;;;;;;;3.08;1.30;;;;;;;17.90;49.97;102429.78;4828308;29;20067;-86
2023/02/02 11:18:41;;;;;;;2.50;1.10;;;;;;;17.90;49.58;102429.78;4828462;29;20132;-86
2023/02/02 11:21:23;;;;;;;3.53;1.25;;;;;;;17.92;50.01;102430.69;4828521;29;20094;-86
2023/02/02 11:24:05;;;;;;;2.25;1.10;;;;;;;17.93;49.66;102436.75;4844698;29;20041;-86
2023/02/02 11:27:07;;;;;;;3.40;1.23;;;;;;;17.94;49.87;102441.09;4828293;29;20505;-85
2023/02/02 11:29:42;;;;;;;3.78;1.42;;;;;;;17.92;49.90;102435.00;4828657;29;20125;-86
2023/02/02 11:32:34;;;;;;;2.80;1.27;;;;;;;17.93;50.01;102439.38;4828249;29;20037;-86
2023/02/02 11:35:02;;;;;;;3.78;1.30;;;;;;;17.92;49.73;102433.28;4810251;29;20049;-85
2023/02/02 11:37:29;;;;;;;2.92;1.33;;;;;;;17.92;49.91;102432.41;4827852;29;20068;-86
2023/02/02 11:40:33;;;;;;;3.00;1.20;;;;;;;17.90;49.99;102429.78;4844381;29;20549;-85
2023/02/02 11:43:02;;;;;;;2.70;1.20;;;;;;;17.91;49.79;102431.53;4827914;29;20044;-86
2023/02/02 11:45:35;;;;;;;2.97;1.25;;;;;;;17.92;49.72;102432.41;4828443;29;20030;-86
2023/02/02 11:48:23;;;;;;;4.20;1.40;;;;;;;17.91;49.94;102435.88;4844743;29;20117;-86